Time;durP1;ratioP1;P1;durP2;ratioP2;P2;SDS_P1;SDS_P2;PMS_P1;PMS_P2;Temp;Humidity;BMP_temperature;BMP_pressure;BME280_temperature;BME280_humidity;BME280_pressure;Samples;Min_cycle;Max_cycle;Signal;HPM_P1;HPM_P2
2023/11/05 00:01:39;;;;;;;;;0.00;0.00;;;;;22.90;43.13;96695.84;4900752;28;45305;-73
2023/11/05 00:04:04;;;;;;;;;1.33;0.00;;;;;22.91;43.27;96689.44;4915622;28;48178;-73
2023/11/05 00:06:33;;;;;;;;;0.00;0.00;;;;;22.87;42.95;96686.59;4901109;28;45316;-73
2023/11/05 00:08:58;;;;;;;;;1.67;0.00;;;;;22.92;42.85;96693.69;4900953;29;45419;-73
2023/11/05 00:11:24;;;;;;;;;2.00;0.00;;;;;22.83;43.09;96677.63;4900988;28;45283;-73
2023/11/05 00:13:49;;;;;;;;;1.00;1.00;;;;;22.92;43.14;96698.97;4900792;28;47302;-73
2023/11/05 00:16:15;;;;;;;;;2.00;0.67;;;;;22.93;43.17;96700.53;4900263;28;45325;-73
2023/11/05 00:18:41;;;;;;;;;0.00;0.00;;;;;22.90;42.74;96699.25;4900900;28;45295;-73
2023/11/05 00:21:06;;;;;;;;;1.00;1.00;;;;;22.93;43.25;96703.19;4900489;28;45422;-73
2023/11/05 00:23:31;;;;;;;;;1.00;1.00;;;;;22.94;42.73;96705.56;4900481;28;46834;-73
2023/11/05 00:25:57;;;;;;;;;0.00;0.00;;;;;22.59;42.92;96651.97;4900555;28;45354;-73
2023/11/05 00:28:22;;;;;;;;;1.00;0.00;;;;;22.91;43.25;96700.84;4900672;29;45468;-72
2023/11/05 00:30:48;;;;;;;;;0.00;0.00;;;;;22.93;42.98;96698.69;4900251;28;45488;-73
2023/11/05 00:33:13;;;;;;;;;0.00;0.00;;;;;22.94;43.20;96705.56;4914960;28;48301;-73
2023/11/05 00:35:38;;;;;;;;;1.00;0.00;;;;;22.90;43.29;96698.50;4900521;28;45447;-73
2023/11/05 00:38:04;;;;;;;;;1.00;0.00;;;;;22.82;42.97;96690.09;4900619;28;45659;-73
2023/11/05 00:40:29;;;;;;;;;1.33;0.00;;;;;22.93;42.78;96711.16;4900251;28;45391;-74
2023/11/05 00:42:55;;;;;;;;;2.67;0.00;;;;;22.84;42.73;96695.91;4899541;28;45399;-76
2023/11/05 00:45:21;;;;;;;;;0.67;0.00;;;;;22.89;43.50;96700.34;4899284;28;45419;-79
2023/11/05 00:47:46;;;;;;;;;0.00;0.00;;;;;22.67;42.87;96677.81;4899903;28;45392;-79
2023/11/05 00:50:11;;;;;;;;;0.67;0.67;;;;;22.98;43.56;96718.25;4899949;29;45352;-78
2023/11/05 00:52:37;;;;;;;;;1.00;0.00;;;;;22.81;43.42;96677.13;4900117;28;47075;-79
2023/11/05 00:55:02;;;;;;;;;0.00;0.00;;;;;22.83;43.21;96683.72;4900017;28;46506;-78
2023/11/05 00:57:28;;;;;;;;;1.00;1.00;;;;;23.02;43.49;96714.75;4900234;28;45335;-78
2023/11/05 00:59:53;;;;;;;;;2.67;1.00;;;;;22.92;43.05;96706.94;4899885;28;45488;-77
2023/11/05 01:02:18;;;;;;;;;0.00;0.00;;;;;23.04;43.06;96725.84;4899828;28;45945;-76
2023/11/05 01:04:44;;;;;;;;;0.00;0.00;;;;;22.94;43.09;96715.38;4900009;28;45235;-75
2023/11/05 01:07:09;;;;;;;;;1.00;1.00;;;;;23.04;43.44;96731.13;4900142;28;45229;-73
2023/11/05 01:09:35;;;;;;;;;0.00;0.00;;;;;23.01;43.46;96721.09;4900038;28;45213;-73
2023/11/05 01:12:00;;;;;;;;;0.00;0.00;;;;;22.99;43.39;96725.91;4899963;28;45917;-73
2023/11/05 01:14:26;;;;;;;;;1.00;1.00;;;;;22.92;42.83;96714.88;4898894;28;45380;-73
2023/11/05 01:16:51;;;;;;;;;0.00;0.00;;;;;22.95;43.13;96735.53;4899840;28;45392;-73
2023/11/05 01:19:16;;;;;;;;;1.00;1.00;;;;;22.99;43.37;96733.06;4899992;28;45356;-73
2023/11/05 01:21:42;;;;;;;;;0.00;0.00;;;;;22.97;42.96;96738.66;4899602;28;45304;-73
2023/11/05 01:24:08;;;;;;;;;0.00;0.00;;;;;22.93;42.94;96733.13;4899714;28;45339;-73
2023/11/05 01:26:33;;;;;;;;;1.00;0.00;;;;;22.97;43.16;96746.63;4899795;29;45185;-73
2023/11/05 01:29:00;;;;;;;;;1.00;1.00;;;;;22.98;43.14;96744.75;4899413;29;45353;-74
2023/11/05 01:31:25;;;;;;;;;3.00;2.00;;;;;22.97;42.88;96738.66;4899561;28;47069;-74
2023/11/05 01:33:51;;;;;;;;;0.00;0.00;;;;;22.93;42.87;96743.75;4899480;28;45352;-73
2023/11/05 01:36:16;;;;;;;;;1.00;1.00;;;;;22.95;43.03;96746.88;4899721;28;45340;-73
2023/11/05 01:38:42;;;;;;;;;1.67;1.00;;;;;22.96;42.93;96756.44;4899646;28;45464;-73
2023/11/05 01:41:08;;;;;;;;;0.00;0.00;;;;;22.96;43.07;96753.78;4899314;28;46892;-73
2023/11/05 01:43:33;;;;;;;;;1.00;1.00;;;;;22.96;43.27;96759.06;4899045;28;45408;-73
2023/11/05 01:45:59;;;;;;;;;0.00;0.00;;;;;22.89;42.98;96757.84;4899515;28;45444;-73
2023/11/05 01:48:26;;;;;;;;;1.00;0.00;;;;;22.93;43.03;96756.19;4899590;29;45581;-73
2023/11/05 01:50:52;;;;;;;;;0.67;0.67;;;;;22.96;42.85;96774.97;4898127;29;47969;-73
2023/11/05 01:53:18;;;;;;;;;1.00;0.67;;;;;22.94;43.16;96784.28;4899307;29;45328;-73
2023/11/05 01:55:43;;;;;;;;;0.00;0.00;;;;;22.91;43.53;96776.91;4899185;28;45391;-73
2023/11/05 01:58:11;;;;;;;;;0.00;0.00;;;;;22.93;43.19;96791.44;4898900;29;45375;-74
2023/11/05 02:00:37;;;;;;;;;0.00;0.00;;;;;22.83;43.09;96780.97;4899043;28;45439;-73
2023/11/05 02:03:03;;;;;;;;;0.00;0.00;;;;;22.89;43.46;96784.34;4899158;28;45517;-74
2023/11/05 02:05:28;;;;;;;;;0.00;0.00;;;;;22.89;43.28;96792.31;4899159;28;45588;-74
2023/11/05 02:07:54;;;;;;;;;1.00;1.00;;;;;22.92;43.43;96795.19;4899262;29;45297;-73
2023/11/05 02:10:19;;;;;;;;;1.00;0.00;;;;;22.83;42.95;96787.06;4899212;29;45316;-74
2023/11/05 02:12:58;;;;;;;;;0.00;0.00;;;;;22.91;43.19;96806.84;4898782;28;45317;-74
2023/11/05 02:15:23;;;;;;;;;0.00;0.00;;;;;22.85;43.07;96800.81;4913977;28;45393;-73
2023/11/05 02:17:49;;;;;;;;;0.00;0.00;;;;;22.81;43.32;96797.19;4913665;28;45634;-73
2023/11/05 02:20:14;;;;;;;;;0.00;0.00;;;;;22.84;43.11;96801.91;4899023;28;45391;-73
2023/11/05 02:22:40;;;;;;;;;1.33;0.00;;;;;22.80;42.99;96803.53;4898929;28;45380;-74
2023/11/05 02:25:06;;;;;;;;;1.33;0.67;;;;;22.91;43.44;96825.41;4899130;28;45450;-73
2023/11/05 02:27:32;;;;;;;;;0.00;0.00;;;;;22.83;43.14;96810.94;4901984;28;45311;-73
2023/11/05 02:29:57;;;;;;;;;0.00;0.00;;;;;22.92;43.40;96834.16;4902156;28;46702;-74
2023/11/05 02:32:23;;;;;;;;;0.00;0.00;;;;;22.87;43.60;96827.06;4902152;28;45442;-74
2023/11/05 02:34:48;;;;;;;;;1.00;1.00;;;;;22.92;43.08;96842.09;4902439;28;45381;-73
2023/11/05 02:37:14;;;;;;;;;1.00;0.00;;;;;22.81;43.34;96828.19;4902324;28;45423;-74
2023/11/05 02:39:39;;;;;;;;;2.00;0.33;;;;;22.59;43.16;96792.34;4902131;29;45352;-74
2023/11/05 02:42:05;;;;;;;;;1.00;0.00;;;;;22.88;43.62;96835.78;4901679;28;45276;-74
2023/11/05 02:44:30;;;;;;;;;1.00;0.00;;;;;22.63;43.15;96803.97;4902195;28;45293;-74
2023/11/05 02:46:55;;;;;;;;;1.00;0.00;;;;;22.49;43.50;96785.31;4902099;28;45480;-74
2023/11/05 02:49:21;;;;;;;;;0.00;0.00;;;;;22.89;42.96;96845.31;4902091;28;45454;-73
2023/11/05 02:51:46;;;;;;;;;3.33;0.33;;;;;22.83;43.30;96850.69;4902041;28;45375;-74
2023/11/05 02:54:12;;;;;;;;;1.33;0.00;;;;;22.89;43.46;96856.72;4902093;28;45391;-74
2023/11/05 02:56:37;;;;;;;;;0.00;0.00;;;;;22.89;43.44;96863.88;4901401;28;45260;-73
2023/11/05 02:59:02;;;;;;;;;0.00;0.00;;;;;22.85;43.03;96868.94;4901671;28;45418;-74
2023/11/05 03:01:27;;;;;;;;;2.00;0.00;;;;;22.88;43.11;96868.38;4901773;28;45463;-73
2023/11/05 03:03:53;;;;;;;;;2.00;0.00;;;;;22.80;43.64;96869.78;4902009;28;45293;-74
2023/11/05 03:06:19;;;;;;;;;0.00;0.00;;;;;22.89;43.69;96879.78;4901959;28;45295;-73
2023/11/05 03:08:45;;;;;;;;;0.33;0.00;;;;;22.90;43.30;96894.59;4901694;29;47144;-73
2023/11/05 03:11:11;;;;;;;;;2.00;0.33;;;;;22.76;43.43;96881.22;4901205;28;45276;-73
2023/11/05 03:13:36;;;;;;;;;0.00;0.00;;;;;22.89;42.98;96899.13;4901764;28;45669;-73
2023/11/05 03:16:02;;;;;;;;;2.00;0.33;;;;;22.87;43.33;96900.47;4901529;29;45439;-74
2023/11/05 03:18:27;;;;;;;;;0.00;0.00;;;;;22.76;43.22;96889.97;4901423;28;46267;-73
2023/11/05 03:20:53;;;;;;;;;0.00;0.00;;;;;22.90;43.15;96913.16;4901295;28;45265;-73
2023/11/05 03:23:18;;;;;;;;;0.00;0.00;;;;;22.91;43.21;96917.38;4901778;28;45347;-73
2023/11/05 03:25:44;;;;;;;;;0.67;0.00;;;;;22.84;43.48;96923.81;4901246;28;45541;-73
2023/11/05 03:28:09;;;;;;;;;1.00;1.00;;;;;22.91;43.34;96925.31;4901414;28;45592;-73
2023/11/05 03:30:34;;;;;;;;;0.00;0.00;;;;;22.89;43.22;96924.81;4901381;28;45286;-73
2023/11/05 03:33:03;;;;;;;;;2.33;1.00;;;;;22.89;43.23;96928.28;4901501;28;45291;-74
2023/11/05 03:35:28;;;;;;;;;1.00;0.00;;;;;22.90;43.42;96942.31;4901513;28;45385;-73
2023/11/05 03:37:54;;;;;;;;;1.00;0.00;;;;;22.90;43.44;96943.09;4900817;29;45386;-73
2023/11/05 03:40:19;;;;;;;;;0.00;0.00;;;;;22.89;43.54;96957.41;4900748;28;46195;-73
2023/11/05 03:42:44;;;;;;;;;0.00;0.00;;;;;22.78;43.33;96947.97;4901333;28;45334;-74
2023/11/05 03:45:10;;;;;;;;;0.00;0.00;;;;;22.78;43.54;96956.72;4901309;28;45359;-73
2023/11/05 03:47:35;;;;;;;;;0.00;0.00;;;;;22.82;43.48;96967.56;4901060;28;46135;-73
2023/11/05 03:50:01;;;;;;;;;0.00;0.00;;;;;22.79;43.50;96965.47;4901193;28;45425;-74
2023/11/05 03:52:26;;;;;;;;;0.00;0.00;;;;;22.85;43.52;96975.72;4900945;28;46657;-73
2023/11/05 03:54:52;;;;;;;;;0.33;0.00;;;;;22.85;43.23;96980.25;4900711;28;45489;-74
2023/11/05 03:57:17;;;;;;;;;0.00;0.00;;;;;22.80;43.34;96975.00;4900581;28;45947;-73
2023/11/05 03:59:43;;;;;;;;;2.00;0.00;;;;;22.85;43.37;96999.59;4899361;29;45324;-74
2023/11/05 04:02:08;;;;;;;;;0.00;0.00;;;;;22.87;43.30;97006.47;4915392;28;46143;-74
2023/11/05 04:04:33;;;;;;;;;0.00;0.00;;;;;22.81;43.54;97003.88;4900988;28;45364;-73
2023/11/05 04:06:59;;;;;;;;;1.00;0.00;;;;;22.76;43.37;97003.91;4915538;28;48085;-73
2023/11/05 04:09:24;;;;;;;;;0.00;0.00;;;;;22.78;43.58;97017.69;4900455;28;45286;-74
2023/11/05 04:11:49;;;;;;;;;0.33;0.33;;;;;22.73;43.36;97013.22;4900935;28;45737;-73
2023/11/05 04:14:15;;;;;;;;;1.00;0.00;;;;;22.85;43.06;97030.59;4900766;28;45240;-73
2023/11/05 04:16:40;;;;;;;;;0.00;0.00;;;;;22.85;43.23;97044.63;4900736;28;46877;-73
2023/11/05 04:19:06;;;;;;;;;0.00;0.00;;;;;22.85;43.57;97051.78;4900621;28;45556;-73
2023/11/05 04:21:31;;;;;;;;;0.00;0.00;;;;;22.80;43.37;97049.97;4900621;28;45439;-73
2023/11/05 04:23:56;;;;;;;;;0.67;0.00;;;;;22.87;43.47;97056.84;4900518;28;45316;-73
2023/11/05 04:26:22;;;;;;;;;0.00;0.00;;;;;22.85;43.52;97059.75;4900425;29;46064;-73
2023/11/05 04:28:47;;;;;;;;;0.00;0.00;;;;;22.85;43.68;97060.53;4900522;28;45241;-73
2023/11/05 04:31:12;;;;;;;;;0.00;0.00;;;;;22.83;43.30;97061.88;4900714;28;45299;-73
2023/11/05 04:33:38;;;;;;;;;0.00;0.00;;;;;22.87;43.39;97073.53;4900539;28;45275;-73
2023/11/05 04:36:04;;;;;;;;;0.00;0.00;;;;;22.82;43.65;97077.00;4900398;28;45344;-73
2023/11/05 04:38:29;;;;;;;;;3.00;0.00;;;;;22.71;43.19;97070.22;4900041;28;45388;-73
2023/11/05 04:40:55;;;;;;;;;0.33;0.33;;;;;22.88;43.70;97100.81;4914845;28;45449;-73
2023/11/05 04:43:20;;;;;;;;;2.00;0.00;;;;;22.89;42.94;97113.78;4900568;28;45279;-73
2023/11/05 04:45:45;;;;;;;;;0.00;0.00;;;;;22.85;43.08;97112.75;4900146;28;47147;-73
2023/11/05 04:48:11;;;;;;;;;0.33;0.33;;;;;22.85;43.00;97126.81;4899385;28;45265;-73
2023/11/05 04:50:36;;;;;;;;;0.00;0.00;;;;;22.89;43.32;97135.00;4900442;28;45283;-73
2023/11/05 04:53:02;;;;;;;;;0.33;0.00;;;;;22.87;43.58;97141.66;4899967;28;45441;-73
2023/11/05 04:55:29;;;;;;;;;0.33;0.00;;;;;22.88;43.34;97149.31;4899992;28;45993;-73
2023/11/05 04:57:55;;;;;;;;;1.67;0.00;;;;;22.89;43.62;97158.06;4899802;28;45443;-73
2023/11/05 05:00:20;;;;;;;;;0.00;0.00;;;;;22.57;43.28;97115.84;4900030;28;45427;-73
2023/11/05 05:02:46;;;;;;;;;0.00;0.00;;;;;22.69;43.18;97141.97;4900031;28;45412;-74
2023/11/05 05:05:12;;;;;;;;;0.67;0.67;;;;;22.85;43.26;97171.84;4899774;28;47363;-73
2023/11/05 05:07:37;;;;;;;;;0.00;0.00;;;;;22.74;43.53;97165.06;4899499;28;45376;-73
2023/11/05 05:10:03;;;;;;;;;1.00;1.00;;;;;22.78;43.60;97175.88;4899940;29;45403;-73
2023/11/05 05:12:29;;;;;;;;;0.00;0.00;;;;;22.74;43.07;97186.25;4900186;28;45364;-73
2023/11/05 05:14:54;;;;;;;;;0.00;0.00;;;;;22.73;43.48;97182.00;4899656;28;46244;-73
2023/11/05 05:17:19;;;;;;;;;0.00;0.00;;;;;22.85;43.70;97203.66;4899857;28;45376;-73
2023/11/05 05:19:46;;;;;;;;;0.00;0.00;;;;;22.87;43.69;97229.91;4900073;28;45399;-74
2023/11/05 05:22:11;;;;;;;;;0.00;0.00;;;;;22.59;43.32;97182.56;4899415;29;45353;-73
2023/11/05 05:24:37;;;;;;;;;0.00;0.00;;;;;22.85;43.72;97235.47;4899499;29;47120;-73
2023/11/05 05:27:02;;;;;;;;;0.00;0.00;;;;;22.79;43.69;97231.28;4899555;28;51329;-74
2023/11/05 05:29:27;;;;;;;;;0.00;0.00;;;;;22.70;43.28;97232.91;4899834;28;45498;-73
2023/11/05 05:31:53;;;;;;;;;2.00;0.33;;;;;22.85;43.77;97258.53;4899653;29;45416;-73
2023/11/05 05:34:19;;;;;;;;;1.00;0.00;;;;;22.85;43.11;97264.63;4899655;28;45459;-73
2023/11/05 05:36:44;;;;;;;;;1.00;0.00;;;;;22.85;43.52;97263.81;4899313;28;45271;-73
2023/11/05 05:39:09;;;;;;;;;0.00;0.00;;;;;22.74;43.60;97260.44;4899773;28;45381;-73
2023/11/05 05:41:35;;;;;;;;;0.00;0.00;;;;;22.80;43.45;97267.28;4898254;29;45523;-73
2023/11/05 05:44:00;;;;;;;;;0.00;0.00;;;;;22.86;43.21;97278.66;4899391;28;46577;-74
2023/11/05 05:46:25;;;;;;;;;1.67;0.00;;;;;22.86;43.13;97297.22;4899488;28;45384;-73
2023/11/05 05:48:51;;;;;;;;;0.33;0.00;;;;;22.76;43.17;97282.16;4914367;28;45487;-73
2023/11/05 05:51:17;;;;;;;;;0.00;0.00;;;;;22.86;43.15;97302.53;4899244;28;45293;-73
2023/11/05 05:53:42;;;;;;;;;0.00;0.00;;;;;22.84;43.18;97300.16;4899342;28;47169;-73
2023/11/05 05:56:09;;;;;;;;;0.00;0.00;;;;;22.85;43.68;97308.88;4899015;28;45439;-73
2023/11/05 05:58:35;;;;;;;;;0.00;0.00;;;;;22.84;43.68;97312.59;4899434;28;45358;-73
2023/11/05 06:01:00;;;;;;;;;0.00;0.00;;;;;22.83;43.17;97322.41;4898899;28;45562;-73
2023/11/05 06:03:25;;;;;;;;;0.00;0.00;;;;;22.76;43.17;97324.56;4898917;28;45989;-73
2023/11/05 06:05:50;;;;;;;;;0.00;0.00;;;;;22.84;43.05;97341.75;4899207;28;45396;-73
2023/11/05 06:08:17;;;;;;;;;0.00;0.00;;;;;22.72;43.84;97329.59;4899309;28;45300;-73
2023/11/05 06:10:42;;;;;;;;;0.00;0.00;;;;;22.78;43.13;97348.94;4899316;29;45360;-73
2023/11/05 06:13:08;;;;;;;;;0.00;0.00;;;;;22.79;43.28;97353.19;4898988;28;45297;-73
2023/11/05 06:15:33;;;;;;;;;1.00;0.00;;;;;22.66;43.51;97351.06;4899006;28;45354;-73
2023/11/05 06:17:59;;;;;;;;;0.00;0.00;;;;;22.83;43.83;97386.03;4898939;28;45451;-73
2023/11/05 06:20:24;;;;;;;;;1.33;0.00;;;;;22.82;43.40;97396.91;4899257;28;45408;-73
2023/11/05 06:22:53;;;;;;;;;0.33;0.00;;;;;22.83;43.65;97401.91;4898738;28;46318;-73
2023/11/05 06:25:19;;;;;;;;;0.00;0.00;;;;;22.73;43.63;97388.69;4898995;28;45364;-73
2023/11/05 06:27:44;;;;;;;;;0.00;0.00;;;;;22.83;43.63;97404.56;4898921;28;45358;-73
2023/11/05 06:30:10;;;;;;;;;0.00;0.00;;;;;22.84;43.42;97415.97;4898954;28;45317;-73
2023/11/05 06:32:36;;;;;;;;;0.00;0.00;;;;;22.70;43.67;97411.22;4898416;28;46389;-74
2023/11/05 06:35:01;;;;;;;;;0.00;0.00;;;;;22.79;43.42;97424.75;4898625;28;45383;-73
2023/11/05 06:37:29;;;;;;;;;0.00;0.00;;;;;22.78;43.57;97433.75;4899076;28;45359;-73
2023/11/05 06:39:54;;;;;;;;;1.00;0.00;;;;;22.85;43.55;97452.81;4899001;28;45391;-73
2023/11/05 06:42:20;;;;;;;;;0.00;0.00;;;;;22.72;43.89;97430.31;4898541;28;46366;-74
2023/11/05 06:44:46;;;;;;;;;0.33;0.33;;;;;22.73;43.79;97444.34;4898816;28;45449;-74
2023/11/05 06:47:11;;;;;;;;;0.00;0.00;;;;;22.78;43.34;97464.75;4898433;29;45288;-74
2023/11/05 06:49:36;;;;;;;;;0.00;0.00;;;;;22.84;43.48;97467.13;4913464;28;45347;-74
2023/11/05 06:52:02;;;;;;;;;0.00;0.00;;;;;22.81;43.55;97475.63;4898705;28;46955;-74
2023/11/05 06:54:27;;;;;;;;;0.00;0.00;;;;;22.81;43.72;97488.88;4898526;28;45298;-74
2023/11/05 06:56:53;;;;;;;;;1.00;1.00;;;;;22.68;43.46;97478.78;4898526;28;45283;-74
2023/11/05 06:59:18;;;;;;;;;0.67;0.00;;;;;22.84;43.78;97503.44;4898499;28;45450;-73
2023/11/05 07:01:44;;;;;;;;;0.00;0.00;;;;;22.85;43.86;97515.63;4898226;28;45727;-73
2023/11/05 07:04:10;;;;;;;;;0.00;0.00;;;;;22.77;43.74;97513.53;4898520;28;45515;-73
2023/11/05 07:06:35;;;;;;;;;0.67;0.67;;;;;22.82;43.66;97524.13;4898269;28;51467;-73
2023/11/05 07:09:00;;;;;;;;;0.00;0.00;;;;;22.83;43.75;97550.34;4898642;28;45394;-73
2023/11/05 07:11:26;;;;;;;;;1.00;0.00;;;;;22.84;43.68;97557.25;4898814;28;45351;-74
2023/11/05 07:13:52;;;;;;;;;0.00;0.00;;;;;22.83;43.49;97563.59;4901564;28;45352;-74
2023/11/05 07:16:17;;;;;;;;;0.00;0.00;;;;;22.76;43.44;97568.38;4901316;28;45313;-74
2023/11/05 07:18:43;;;;;;;;;0.00;0.00;;;;;22.69;43.38;97565.94;4901715;28;45384;-74
2023/11/05 07:21:11;;;;;;;;;1.00;0.00;;;;;22.83;43.57;97595.41;4901348;28;46121;-73
2023/11/05 07:23:38;;;;;;;;;0.00;0.00;;;;;22.77;43.46;97585.09;4901455;28;45488;-73
2023/11/05 07:26:03;;;;;;;;;1.33;0.00;;;;;22.83;43.45;97615.81;4901482;28;45247;-74
2023/11/05 07:28:29;;;;;;;;;0.00;0.00;;;;;22.83;43.64;97618.47;4901481;28;45581;-74
2023/11/05 07:30:54;;;;;;;;;0.00;0.00;;;;;22.82;43.79;97627.50;4900952;28;47092;-73
2023/11/05 07:33:19;;;;;;;;;1.00;0.00;;;;;22.78;43.30;97631.72;4901418;28;45450;-73
2023/11/05 07:35:44;;;;;;;;;0.00;0.00;;;;;22.77;43.46;97646.81;4901380;28;45420;-74
2023/11/05 07:38:10;;;;;;;;;0.00;0.00;;;;;22.83;43.65;97674.94;4901258;29;45376;-74
2023/11/05 07:40:35;;;;;;;;;0.00;0.00;;;;;22.84;43.95;97699.59;4901306;28;45371;-74
2023/11/05 07:43:00;;;;;;;;;1.00;0.00;;;;;22.84;43.25;97700.38;4901068;28;45427;-74
2023/11/05 07:45:26;;;;;;;;;1.00;0.00;;;;;22.82;43.81;97707.78;4901031;28;45368;-74
2023/11/05 07:47:51;;;;;;;;;0.67;0.00;;;;;22.76;43.44;97700.91;4901321;28;45305;-72
2023/11/05 07:50:17;;;;;;;;;0.00;0.00;;;;;22.87;43.20;97735.38;4915564;28;47485;-74
2023/11/05 07:52:43;;;;;;;;;0.00;0.00;;;;;22.85;43.09;97732.97;4901104;28;45344;-74
2023/11/05 07:55:09;;;;;;;;;0.00;0.00;;;;;22.80;43.68;97743.56;4901126;28;45500;-74
2023/11/05 07:57:35;;;;;;;;;1.00;0.00;;;;;22.66;43.74;97730.78;4900795;28;45423;-74
2023/11/05 08:00:01;;;;;;;;;2.00;0.00;;;;;22.85;43.68;97776.19;4900590;28;46284;-74
2023/11/05 08:02:27;;;;;;;;;0.00;0.00;;;;;22.85;43.33;97792.09;4915479;28;45375;-73
2023/11/05 08:04:52;;;;;;;;;2.00;0.00;;;;;22.77;43.83;97786.50;4900595;28;45476;-74
2023/11/05 08:07:18;;;;;;;;;0.00;0.00;;;;;22.85;43.95;97808.00;4900883;28;45444;-73
2023/11/05 08:09:43;;;;;;;;;0.67;0.00;;;;;22.78;43.60;97809.28;4900754;28;45906;-73
2023/11/05 08:12:09;;;;;;;;;0.00;0.00;;;;;22.87;43.94;97838.75;4900961;28;45315;-72
2023/11/05 08:14:35;;;;;;;;;0.00;0.00;;;;;22.85;43.31;97842.44;4900529;28;45475;-73
2023/11/05 08:17:01;;;;;;;;;0.33;0.00;;;;;22.86;43.88;97856.50;4900751;28;45465;-74
2023/11/05 08:19:26;;;;;;;;;1.00;0.00;;;;;22.81;43.46;97861.78;4900641;28;45356;-74
2023/11/05 08:21:51;;;;;;;;;0.67;0.67;;;;;22.87;43.46;97883.81;4900701;28;45382;-74
2023/11/05 08:24:17;;;;;;;;;0.00;0.00;;;;;22.85;43.53;97889.34;4899463;28;45370;-74
2023/11/05 08:26:44;;;;;;;;;0.00;0.00;;;;;22.54;43.95;97870.63;4900717;28;45403;-73
2023/11/05 08:29:09;;;;;;;;;0.00;0.00;;;;;22.76;43.53;97915.56;4900082;29;45454;-73
2023/11/05 08:31:34;;;;;;;;;1.00;0.00;;;;;22.76;43.53;97931.47;4900426;28;45465;-74
2023/11/05 08:34:00;;;;;;;;;1.00;0.00;;;;;22.51;43.67;97904.53;4900554;28;45364;-75
2023/11/05 08:36:26;;;;;;;;;0.00;0.00;;;;;22.81;43.71;97955.38;4900222;28;45578;-76
2023/11/05 08:38:52;;;;;;;;;1.00;0.00;;;;;22.63;43.55;97940.63;4900249;28;47075;-75
2023/11/05 08:41:17;;;;;;;;;0.00;0.00;;;;;22.87;43.76;97976.59;4899730;28;45512;-74
2023/11/05 08:43:43;;;;;;;;;0.00;0.00;;;;;22.88;43.93;97992.25;4900039;28;45484;-76
2023/11/05 08:46:09;;;;;;;;;1.33;0.00;;;;;22.83;43.67;97993.00;4900037;28;45419;-74
2023/11/05 08:48:34;;;;;;;;;0.00;0.00;;;;;22.64;44.19;97979.31;4899351;29;46032;-72
2023/11/05 08:51:00;;;;;;;;;0.00;0.00;;;;;22.78;44.26;98006.22;4899369;28;45508;-75
2023/11/05 08:53:25;;;;;;;;;0.00;0.00;;;;;22.90;43.76;98034.41;4899733;28;45453;-74
2023/11/05 08:55:51;;;;;;;;;0.00;0.00;;;;;22.78;44.17;98019.47;4899249;28;45380;-74
2023/11/05 08:58:16;;;;;;;;;2.67;0.67;;;;;22.82;44.03;98041.75;4899017;28;46133;-75
2023/11/05 09:00:43;;;;;;;;;2.00;1.00;;;;;22.80;44.50;98054.47;4899437;28;45574;-81
2023/11/05 09:03:09;;;;;;;;;1.33;1.33;;;;;22.65;44.37;98033.94;4899802;28;45331;-86
2023/11/05 09:05:34;;;;;;;;;2.00;1.00;;;;;22.97;44.60;98077.41;4899405;28;45372;-83
2023/11/05 09:07:59;;;;;;;;;0.00;0.00;;;;;22.70;44.17;98049.91;4899947;29;48793;-88
2023/11/05 09:10:26;;;;;;;;;0.00;0.00;;;;;23.04;44.04;98111.66;4899517;28;45470;-82
2023/11/05 09:12:52;;;;;;;;;1.00;1.00;;;;;22.88;44.25;98089.53;4899468;28;45446;-80
2023/11/05 09:15:17;;;;;;;;;0.67;0.67;;;;;23.07;44.55;98127.88;4899424;28;45294;-89
2023/11/05 09:17:42;;;;;;;;;0.00;0.00;;;;;23.11;44.17;98146.72;4899191;28;45280;-82
2023/11/05 09:20:10;;;;;;;;;1.00;1.00;;;;;22.96;44.56;98134.13;4899128;28;45319;-81
2023/11/05 09:22:36;;;;;;;;;0.00;0.00;;;;;23.14;44.68;98161.31;4899395;28;45335;-78
2023/11/05 09:25:04;;;;;;;;;2.00;2.00;;;;;22.96;44.24;98142.91;4899240;28;45303;-81
2023/11/05 09:27:30;;;;;;;;;1.67;1.33;;;;;23.17;44.35;98180.19;4898920;28;47427;-79
2023/11/05 09:29:55;;;;;;;;;1.00;1.00;;;;;22.96;44.63;98171.25;4899052;28;45463;-81
2023/11/05 09:32:21;;;;;;;;;2.33;1.00;;;;;23.20;44.30;98200.09;4899383;28;45463;-81
2023/11/05 09:34:47;;;;;;;;;1.00;1.00;;;;;23.14;44.94;98203.75;4899038;28;45428;-87
2023/11/05 09:37:12;;;;;;;;;2.00;1.67;;;;;23.13;45.02;98205.63;4899448;29;45527;-85
2023/11/05 09:39:37;;;;;;;;;0.33;0.33;;;;;23.29;44.62;98235.72;4899283;28;45490;-88
2023/11/05 09:42:03;;;;;;;;;1.00;0.00;;;;;23.22;44.76;98229.03;4899569;28;45532;-86
2023/11/05 09:44:28;;;;;;;;;1.00;1.00;;;;;23.26;44.63;98232.78;4899119;28;45443;-85
2023/11/05 09:46:55;;;;;;;;;2.00;2.00;;;;;23.40;44.59;98259.69;4898982;28;46236;-84
2023/11/05 09:49:20;;;;;;;;;1.00;1.00;;;;;23.28;44.34;98249.25;4898023;29;45444;-90
2023/11/05 09:51:50;;;;;;;;;3.00;1.00;;;;;23.47;44.31;98286.81;4899362;28;45300;-82
2023/11/05 09:54:16;;;;;;;;;1.00;1.00;;;;;23.51;44.67;98290.59;4899635;28;45358;-88
2023/11/05 09:56:41;;;;;;;;;1.00;1.00;;;;;23.54;44.46;98313.19;4898162;28;46345;-71
2023/11/05 09:59:06;;;;;;;;;1.00;1.00;;;;;23.55;44.61;98320.06;4898520;28;45394;-74
2023/11/05 10:01:35;;;;;;;;;1.00;1.00;;;;;23.47;44.47;98317.88;4899407;28;45348;-74
2023/11/05 10:04:02;;;;;;;;;1.33;1.00;;;;;23.59;44.12;98354.88;4899344;29;45448;-75
2023/11/05 10:06:27;;;;;;;;;2.67;1.00;;;;;23.57;44.47;98341.06;4895715;28;46368;-74
2023/11/05 10:08:52;;;;;;;;;1.00;1.00;;;;;23.60;44.51;98367.88;4888260;29;45388;-75
2023/11/05 10:11:19;;;;;;;;;1.33;1.33;;;;;23.62;44.29;98370.31;4879675;29;49481;-73
2023/11/05 10:13:49;;;;;;;;;0.67;0.67;;;;;23.64;44.07;98378.81;4888545;29;45840;-73
2023/11/05 10:16:20;;;;;;;;;1.00;1.00;;;;;23.66;44.32;98386.53;4887980;28;46976;-75
2023/11/05 10:18:51;;;;;;;;;0.33;0.33;;;;;23.68;44.28;98390.53;4880043;29;45282;-73
2023/11/05 10:21:17;;;;;;;;;2.00;0.00;;;;;23.70;44.07;98390.28;4880049;29;45334;-73
2023/11/05 10:23:50;;;;;;;;;0.00;0.00;;;;;23.70;43.84;98414.19;4880185;29;45251;-73
2023/11/05 10:26:27;;;;;;;;;2.00;0.67;;;;;23.71;44.11;98421.88;4881718;29;45768;-74
2023/11/05 10:28:53;;;;;;;;;1.00;1.00;;;;;23.72;43.62;98428.00;4886133;29;45366;-75
2023/11/05 10:31:24;;;;;;;;;1.00;1.00;;;;;23.72;43.88;98438.63;4879922;29;45448;-74
2023/11/05 10:33:53;;;;;;;;;1.33;1.00;;;;;23.70;43.74;98436.22;4879947;29;45559;-73
2023/11/05 10:36:20;;;;;;;;;1.00;1.00;;;;;23.70;43.82;98459.31;4879609;29;45359;-73
2023/11/05 10:38:47;;;;;;;;;3.00;1.33;;;;;23.70;43.73;98465.44;4879766;29;45382;-76
2023/11/05 10:41:17;;;;;;;;;1.00;1.00;;;;;23.65;43.93;98476.00;4884407;29;45466;-75
2023/11/05 10:43:49;;;;;;;;;1.00;1.00;;;;;23.67;43.91;98492.47;4893961;29;45490;-74
2023/11/05 10:46:20;;;;;;;;;2.67;1.00;;;;;23.53;44.33;98481.41;4897645;28;46311;-75
2023/11/05 10:48:50;;;;;;;;;2.00;1.00;;;;;23.60;44.07;98499.81;4898411;28;45451;-75
2023/11/05 10:51:20;;;;;;;;;2.33;1.00;;;;;23.63;43.95;98516.03;4901144;28;45364;-75
2023/11/05 10:53:47;;;;;;;;;1.00;1.00;;;;;23.60;44.07;98535.09;4900580;29;45400;-75
2023/11/05 10:56:36;;;;;;;;;2.00;0.00;;;;;23.62;44.37;98534.88;4900782;28;46970;-76
2023/11/05 10:59:02;;;;;;;;;0.33;0.33;;;;;23.62;44.47;98542.84;4895952;29;45416;-75
2023/11/05 11:01:30;;;;;;;;;2.33;1.00;;;;;23.58;44.42;98539.88;4900097;28;45363;-75
2023/11/05 11:04:16;;;;;;;;;2.00;1.00;;;;;23.41;44.63;98510.72;4898109;28;45471;-75
2023/11/05 11:06:44;;;;;;;;;1.33;1.00;;;;;23.58;44.84;98544.38;4898779;29;46180;-75
2023/11/05 11:09:22;;;;;;;;;1.33;1.33;;;;;23.49;44.74;98544.81;4897994;28;45380;-75
2023/11/05 11:11:48;;;;;;;;;2.67;2.00;;;;;23.61;44.68;98579.19;4901350;28;45520;-75
2023/11/05 11:14:15;;;;;;;;;1.00;1.00;;;;;23.56;44.37;98592.41;4900220;28;45442;-75
2023/11/05 11:16:42;;;;;;;;;1.00;0.33;;;;;23.59;44.92;98601.72;4897967;29;46430;-75
2023/11/05 11:19:13;;;;;;;;;2.00;2.00;;;;;23.60;44.52;98617.41;4900686;28;45304;-76
2023/11/05 11:21:43;;;;;;;;;1.00;1.00;;;;;23.57;44.54;98609.13;4895684;29;45480;-75
2023/11/05 11:24:33;;;;;;;;;4.00;0.33;;;;;23.47;44.61;98591.19;4900417;28;45440;-75
2023/11/05 11:27:00;;;;;;;;;2.00;2.00;;;;;23.54;44.54;98609.63;4895617;29;47564;-76
2023/11/05 11:29:26;;;;;;;;;3.00;1.33;;;;;23.52;43.62;98610.66;4901049;28;45691;-75